createdAt,value
2022-10-17T00:00:55.335Z,999.66
2022-10-17T00:01:55.352Z,999.70
2022-10-17T00:02:55.295Z,999.65
2022-10-17T00:03:55.283Z,999.64
2022-10-17T00:04:55.297Z,999.57
2022-10-17T00:05:55.275Z,999.59
2022-10-17T00:06:55.266Z,999.64
2022-10-17T00:07:55.246Z,999.66
2022-10-17T00:08:55.236Z,999.66
2022-10-17T00:09:55.226Z,999.64
2022-10-17T00:10:55.234Z,999.64
2022-10-17T00:11:55.197Z,999.63
2022-10-17T00:12:55.203Z,999.69
2022-10-17T00:13:55.186Z,999.64
2022-10-17T00:14:55.170Z,999.61
2022-10-17T00:15:55.180Z,999.62
2022-10-17T00:16:55.162Z,999.66
2022-10-17T00:17:55.140Z,999.70
2022-10-17T00:18:55.210Z,999.67
2022-10-17T00:19:55.131Z,999.67
2022-10-17T00:20:55.120Z,999.67
2022-10-17T00:21:55.112Z,999.68
2022-10-17T00:22:55.093Z,999.70
2022-10-17T00:23:55.079Z,999.68
2022-10-17T00:24:55.075Z,999.77
2022-10-17T00:25:55.053Z,999.75
2022-10-17T00:26:55.071Z,999.77
2022-10-17T00:27:55.040Z,999.78
2022-10-17T00:28:55.111Z,999.82
2022-10-17T00:29:55.014Z,999.75
2022-10-17T00:30:55.006Z,999.75
2022-10-17T00:31:55.008Z,999.77
2022-10-17T00:32:54.994Z,999.77
2022-10-17T00:33:54.976Z,999.77
2022-10-17T00:34:54.967Z,999.83
2022-10-17T00:35:54.947Z,999.80
2022-10-17T00:36:54.967Z,999.83
2022-10-17T00:37:54.927Z,999.86
2022-10-17T00:38:54.928Z,999.82
2022-10-17T00:39:54.912Z,999.78
2022-10-17T00:41:54.949Z,999.88
2022-10-17T00:42:54.889Z,999.91
2022-10-17T00:43:54.884Z,999.88
2022-10-17T00:44:54.860Z,999.91
2022-10-17T00:45:54.851Z,999.95
2022-10-17T00:46:54.860Z,999.93
2022-10-17T00:47:54.828Z,999.90
2022-10-17T00:48:54.822Z,999.95
2022-10-17T00:49:54.823Z,999.97
2022-10-17T00:50:54.813Z,999.93
2022-10-17T00:51:54.803Z,999.98
2022-10-17T00:52:54.782Z,999.95
2022-10-17T00:53:54.773Z,999.94
2022-10-17T00:54:54.764Z,999.95
2022-10-17T00:55:54.743Z,999.94
2022-10-17T00:56:54.754Z,999.97
2022-10-17T00:57:54.725Z,999.93
2022-10-17T00:58:54.775Z,999.94
2022-10-17T00:59:54.704Z,999.93
2022-10-17T01:00:54.698Z,999.92
2022-10-17T01:01:54.704Z,999.93
2022-10-17T01:02:54.695Z,999.91
2022-10-17T01:03:54.669Z,999.89
2022-10-17T01:04:54.657Z,999.97
2022-10-17T01:05:54.641Z,999.94
2022-10-17T01:06:54.668Z,999.92
2022-10-17T01:07:54.627Z,999.94
2022-10-17T01:08:54.627Z,999.96
2022-10-17T01:09:54.600Z,999.99
2022-10-17T01:10:54.592Z,999.98
2022-10-17T01:11:54.591Z,1000.00
2022-10-17T01:12:54.579Z,1000.02
2022-10-17T01:13:54.561Z,999.99
2022-10-17T01:14:54.552Z,1000.04
2022-10-17T01:15:54.540Z,1000.06
2022-10-17T01:16:54.560Z,1000.00
2022-10-17T01:17:54.511Z,1000.01
2022-10-17T01:18:54.512Z,999.98
2022-10-17T01:19:54.494Z,999.96
2022-10-17T01:20:54.494Z,999.97
2022-10-17T01:21:54.500Z,1000.02
2022-10-17T01:22:54.465Z,999.97
2022-10-17T01:23:54.462Z,999.99
2022-10-17T01:24:54.445Z,1000.01
2022-10-17T01:25:54.444Z,999.97
2022-10-17T01:26:54.446Z,999.96
2022-10-17T01:27:54.415Z,999.95
2022-10-17T01:28:54.415Z,999.96
2022-10-17T01:29:54.398Z,1000.01
2022-10-17T01:30:54.387Z,999.98
2022-10-17T01:31:54.387Z,999.96
2022-10-17T01:32:54.368Z,999.96
2022-10-17T01:33:54.348Z,999.98
2022-10-17T01:34:54.349Z,1000.02
2022-10-17T01:35:54.334Z,999.99
2022-10-17T01:36:54.357Z,1000.04
2022-10-17T01:37:54.323Z,1000.04
2022-10-17T01:38:54.307Z,1000.02
2022-10-17T01:39:54.306Z,1000.04
2022-10-17T01:40:54.288Z,1000.05
2022-10-17T01:41:54.281Z,999.99
2022-10-17T01:42:54.267Z,1000.04
2022-10-17T01:43:54.246Z,1000.03
2022-10-17T01:44:54.242Z,1000.05
2022-10-17T01:45:54.250Z,1000.05
2022-10-17T01:46:54.274Z,1000.04
2022-10-17T01:47:54.209Z,999.97
2022-10-17T01:48:54.203Z,1000.00
2022-10-17T01:49:54.201Z,1000.03
2022-10-17T01:50:54.215Z,1000.03
2022-10-17T01:51:54.214Z,1000.00
2022-10-17T01:52:54.164Z,999.97
2022-10-17T01:53:54.147Z,1000.00
2022-10-17T01:54:54.147Z,1000.03
2022-10-17T01:55:54.192Z,1000.03
2022-10-17T01:56:54.135Z,1000.05
2022-10-17T01:57:54.103Z,1000.01
2022-10-17T01:58:54.097Z,1000.00
2022-10-17T01:59:54.077Z,1000.01
2022-10-17T02:00:54.087Z,1000.03
2022-10-17T02:01:54.090Z,1000.09
2022-10-17T02:02:54.057Z,1000.03
2022-10-17T02:03:54.097Z,999.96
2022-10-17T02:04:54.059Z,1000.02
2022-10-17T02:05:54.019Z,999.99
2022-10-17T02:06:54.031Z,999.96
2022-10-17T02:07:54.000Z,999.95
2022-10-17T02:08:53.994Z,1000.04
2022-10-17T02:09:53.981Z,1000.00
2022-10-17T02:10:53.971Z,1000.00
2022-10-17T02:11:53.971Z,999.90
2022-10-17T02:12:53.958Z,999.95
2022-10-17T02:13:53.940Z,999.92
2022-10-17T02:14:53.933Z,999.92
2022-10-17T02:15:53.923Z,999.96
2022-10-17T02:16:53.931Z,999.93
2022-10-17T02:17:53.894Z,999.95
2022-10-17T02:18:53.889Z,999.90
2022-10-17T02:19:53.895Z,999.98
2022-10-17T02:20:53.875Z,999.91
2022-10-17T02:21:53.871Z,999.86
2022-10-17T02:22:53.846Z,999.87
2022-10-17T02:23:53.838Z,999.87
2022-10-17T02:24:53.826Z,999.92
2022-10-17T02:25:53.821Z,999.89
2022-10-17T02:26:53.825Z,999.93
2022-10-17T02:27:53.807Z,1000.00
2022-10-17T02:28:53.840Z,999.92
2022-10-17T02:29:53.769Z,999.97
2022-10-17T02:30:53.767Z,999.95
2022-10-17T02:31:53.769Z,1000.02
2022-10-17T02:32:53.748Z,1000.12
2022-10-17T02:33:53.729Z,1000.10
2022-10-17T02:34:53.728Z,1000.07
2022-10-17T02:35:53.711Z,1000.06
2022-10-17T02:36:53.720Z,1000.06
2022-10-17T02:37:53.694Z,1000.08
2022-10-17T02:38:53.682Z,1000.09
2022-10-17T02:39:53.692Z,1000.13
2022-10-17T02:40:53.703Z,1000.04
2022-10-17T02:41:53.663Z,1000.02
2022-10-17T02:42:53.664Z,999.91
2022-10-17T02:43:54.391Z,999.89
2022-10-17T02:44:53.624Z,999.94
2022-10-17T02:45:53.603Z,999.87
2022-10-17T02:46:53.617Z,999.90
2022-10-17T02:47:53.584Z,999.92
2022-10-17T02:48:53.575Z,999.87
2022-10-17T02:49:53.575Z,999.88
2022-10-17T02:50:53.557Z,999.83
2022-10-17T02:51:53.557Z,999.84
2022-10-17T02:52:53.545Z,999.88
2022-10-17T02:53:53.517Z,999.87
2022-10-17T02:54:53.516Z,999.89
2022-10-17T02:55:53.503Z,999.93
2022-10-17T02:56:53.509Z,999.93
2022-10-17T02:57:53.510Z,999.94
2022-10-17T02:58:53.479Z,999.89
2022-10-17T02:59:53.463Z,999.81
2022-10-17T03:00:53.504Z,999.85
2022-10-17T03:01:53.451Z,999.83
2022-10-17T03:02:53.431Z,999.87
2022-10-17T03:03:53.421Z,999.91
2022-10-17T03:04:53.412Z,999.84
2022-10-17T03:05:53.391Z,999.87
2022-10-17T03:06:53.413Z,999.87
2022-10-17T03:07:53.382Z,999.86
2022-10-17T03:08:53.373Z,999.83
2022-10-17T03:09:53.354Z,999.87
2022-10-17T03:10:53.363Z,999.87
2022-10-17T03:11:53.355Z,999.84
2022-10-17T03:12:53.344Z,999.90
2022-10-17T03:13:53.314Z,999.92
2022-10-17T03:14:53.305Z,999.85
2022-10-17T03:15:53.292Z,999.93
2022-10-17T03:16:53.305Z,999.96
2022-10-17T03:17:53.277Z,999.90
2022-10-17T03:18:53.269Z,999.95
2022-10-17T03:19:53.257Z,999.96
2022-10-17T03:20:53.246Z,999.97
2022-10-17T03:21:53.248Z,1000.06
2022-10-17T03:22:53.218Z,1000.04
2022-10-17T03:23:53.208Z,1000.04
2022-10-17T03:24:53.207Z,1000.02
2022-10-17T03:25:53.219Z,1000.00
2022-10-17T03:26:53.212Z,999.99
2022-10-17T03:27:53.167Z,999.97
2022-10-17T03:28:54.493Z,1000.02
2022-10-17T03:29:53.162Z,1000.00
2022-10-17T03:30:53.141Z,999.98
2022-10-17T03:31:53.149Z,1000.02
2022-10-17T03:32:53.111Z,1000.03
2022-10-17T03:33:53.109Z,1000.02
2022-10-17T03:34:53.092Z,999.93
2022-10-17T03:35:53.103Z,999.99
2022-10-17T03:36:53.094Z,1000.09
2022-10-17T03:37:53.070Z,1000.06
2022-10-17T03:38:53.055Z,1000.00
2022-10-17T03:39:53.044Z,1000.05
2022-10-17T03:40:53.033Z,999.99
2022-10-17T03:41:53.044Z,1000.01
2022-10-17T03:42:53.015Z,1000.07
2022-10-17T03:43:53.005Z,1000.12
2022-10-17T03:44:52.995Z,999.99
2022-10-17T03:45:52.987Z,1000.00
2022-10-17T03:46:52.987Z,1000.03
2022-10-17T03:47:52.967Z,1000.06
2022-10-17T03:48:52.947Z,1000.12
2022-10-17T03:49:52.941Z,1000.10
2022-10-17T03:50:52.928Z,1000.09
2022-10-17T03:51:52.938Z,1000.04
2022-10-17T03:52:52.908Z,1000.09
2022-10-17T03:53:52.910Z,1000.16
2022-10-17T03:54:52.887Z,1000.08
2022-10-17T03:55:52.880Z,1000.03
2022-10-17T03:56:52.940Z,1000.12
2022-10-17T03:57:52.861Z,1000.08
2022-10-17T03:58:52.842Z,1000.12
2022-10-17T03:59:52.861Z,1000.10
2022-10-17T04:00:52.859Z,1000.12
2022-10-17T04:01:52.851Z,1000.06
2022-10-17T04:02:52.804Z,1000.04
2022-10-17T04:03:52.800Z,1000.09
2022-10-17T04:04:52.784Z,1000.04
2022-10-17T04:05:52.785Z,1000.06
2022-10-17T04:06:52.783Z,1000.11
2022-10-17T04:07:52.761Z,1000.10
2022-10-17T04:08:52.744Z,1000.10
2022-10-17T04:09:52.735Z,1000.12
2022-10-17T04:10:52.717Z,1000.13
2022-10-17T04:11:52.732Z,1000.12
2022-10-17T04:12:52.699Z,1000.21
2022-10-17T04:13:52.687Z,1000.18
2022-10-17T04:14:52.683Z,1000.18
2022-10-17T04:15:52.676Z,1000.18
2022-10-17T04:16:52.696Z,1000.22
2022-10-17T04:17:52.722Z,1000.18
2022-10-17T04:18:52.640Z,1000.20
2022-10-17T04:19:52.628Z,1000.16
2022-10-17T04:20:52.618Z,1000.22
2022-10-17T04:21:52.628Z,1000.21
2022-10-17T04:22:52.609Z,1000.28
2022-10-17T04:23:52.605Z,1000.27
2022-10-17T04:24:52.593Z,1000.30
2022-10-17T04:25:52.574Z,1000.27
2022-10-17T04:26:52.572Z,1000.27
2022-10-17T04:27:52.550Z,1000.24
2022-10-17T04:28:52.532Z,1000.29
2022-10-17T04:29:52.533Z,1000.33
2022-10-17T04:30:54.175Z,1000.36
2022-10-17T04:31:52.523Z,1000.33
2022-10-17T04:32:52.493Z,1000.34
2022-10-17T04:33:52.484Z,1000.35
2022-10-17T04:34:52.466Z,1000.31
2022-10-17T04:35:52.464Z,1000.31
2022-10-17T04:36:52.469Z,1000.32
2022-10-17T04:37:52.445Z,1000.35
2022-10-17T04:38:52.426Z,1000.36
2022-10-17T04:39:52.436Z,1000.35
2022-10-17T04:40:52.406Z,1000.39
2022-10-17T04:41:52.429Z,1000.41
2022-10-17T04:42:52.388Z,1000.43
2022-10-17T04:43:52.387Z,1000.42
2022-10-17T04:44:52.378Z,1000.48
2022-10-17T04:45:52.358Z,1000.48
2022-10-17T04:46:52.368Z,1000.43
2022-10-17T04:47:52.348Z,1000.49
2022-10-17T04:48:52.339Z,1000.51
2022-10-17T04:49:52.328Z,1000.53
2022-10-17T04:50:52.303Z,1000.53
2022-10-17T04:51:52.329Z,1000.53
2022-10-17T04:52:52.281Z,1000.51
2022-10-17T04:53:52.281Z,1000.54
2022-10-17T04:54:52.262Z,1000.58
2022-10-17T04:55:52.261Z,1000.62
2022-10-17T04:56:52.259Z,1000.54
2022-10-17T04:57:52.243Z,1000.50
2022-10-17T04:58:52.222Z,1000.53
2022-10-17T04:59:52.213Z,1000.48
2022-10-17T05:00:52.225Z,1000.46
2022-10-17T05:01:52.216Z,1000.46
2022-10-17T05:02:52.174Z,1000.46
2022-10-17T05:03:52.174Z,1000.49
2022-10-17T05:04:52.167Z,1000.45
2022-10-17T05:05:52.152Z,1000.41
2022-10-17T05:06:52.157Z,1000.45
2022-10-17T05:07:52.137Z,1000.47
2022-10-17T05:08:52.116Z,1000.46
2022-10-17T05:09:52.114Z,1000.47
2022-10-17T05:10:52.147Z,1000.49
2022-10-17T05:11:52.107Z,1000.51
2022-10-17T05:12:52.079Z,1000.50
2022-10-17T05:13:52.070Z,1000.51
2022-10-17T05:14:52.058Z,1000.51
2022-10-17T05:15:52.048Z,1000.52
2022-10-17T05:16:52.052Z,1000.52
2022-10-17T05:17:52.038Z,1000.54
2022-10-17T05:18:53.080Z,1000.52
2022-10-17T05:19:52.020Z,1000.51
2022-10-17T05:20:51.991Z,1000.52
2022-10-17T05:21:52.001Z,1000.47
2022-10-17T05:22:51.971Z,1000.54
2022-10-17T05:23:51.979Z,1000.56
2022-10-17T05:24:51.955Z,1000.59
2022-10-17T05:25:52.069Z,1000.59
2022-10-17T05:26:51.893Z,1000.60
2022-10-17T05:27:51.924Z,1000.70
2022-10-17T05:28:51.936Z,1000.72
2022-10-17T05:29:51.904Z,1000.68
2022-10-17T05:30:51.883Z,1000.68
2022-10-17T05:31:52.014Z,1000.71
2022-10-17T05:32:51.875Z,1000.72
2022-10-17T05:33:51.825Z,1000.77
2022-10-17T05:34:51.819Z,1000.72
2022-10-17T05:35:51.795Z,1000.78
2022-10-17T05:36:51.768Z,1000.77
2022-10-17T05:37:51.785Z,1000.74
2022-10-17T05:38:51.757Z,1000.75
2022-10-17T05:39:51.814Z,1000.74
2022-10-17T05:40:51.736Z,1000.73
2022-10-17T05:41:51.728Z,1000.85
2022-10-17T05:42:51.729Z,1000.77
2022-10-17T05:43:51.719Z,1000.77
2022-10-17T05:44:51.690Z,1000.76
2022-10-17T05:45:51.688Z,1000.78
2022-10-17T05:46:51.670Z,1000.78
2022-10-17T05:47:51.682Z,1000.77
2022-10-17T05:48:51.643Z,1000.76
2022-10-17T05:49:52.629Z,1000.73
2022-10-17T05:50:51.630Z,1000.71
2022-10-17T05:51:51.621Z,1000.76
2022-10-17T05:52:51.641Z,1000.74
2022-10-17T05:53:51.600Z,1000.77
2022-10-17T05:54:51.586Z,1000.77
2022-10-17T05:55:51.580Z,1000.82
2022-10-17T05:56:51.564Z,1000.83
2022-10-17T05:57:51.583Z,1000.79
2022-10-17T05:58:55.073Z,1000.81
2022-10-17T05:59:51.537Z,1000.85
2022-10-17T06:00:51.527Z,1000.84
2022-10-17T06:01:51.570Z,1000.83
2022-10-17T06:02:51.525Z,1000.84
2022-10-17T06:03:51.497Z,1000.85
2022-10-17T06:04:51.534Z,1000.86
2022-10-17T06:05:51.477Z,1000.87
2022-10-17T06:06:51.467Z,1000.85
2022-10-17T06:07:51.478Z,1000.80
2022-10-17T06:08:51.438Z,1000.80
2022-10-17T06:09:51.438Z,1000.73
2022-10-17T06:10:51.419Z,1000.78
2022-10-17T06:11:51.409Z,1000.74
2022-10-17T06:12:51.420Z,1000.78
2022-10-17T06:13:51.399Z,1000.79
2022-10-17T06:14:51.371Z,1000.78
2022-10-17T06:15:51.378Z,1000.84
2022-10-17T06:16:51.361Z,1000.86
2022-10-17T06:17:51.374Z,1000.93
2022-10-17T06:18:51.342Z,1000.95
2022-10-17T06:19:51.341Z,1000.99
2022-10-17T06:20:51.314Z,1001.01
2022-10-17T06:21:51.312Z,1001.05
2022-10-17T06:22:51.313Z,1001.07
2022-10-17T06:23:51.291Z,1001.14
2022-10-17T06:24:51.274Z,1001.03
2022-10-17T06:25:51.273Z,1001.05
2022-10-17T06:26:51.258Z,1001.03
2022-10-17T06:27:51.264Z,1001.07
2022-10-17T06:28:51.303Z,1001.09
2022-10-17T06:29:51.227Z,1001.15
2022-10-17T06:30:51.218Z,1001.08
2022-10-17T06:31:51.198Z,1001.14
2022-10-17T06:32:51.217Z,1001.09
2022-10-17T06:33:51.199Z,1001.09
2022-10-17T06:34:51.179Z,1001.06
2022-10-17T06:35:51.165Z,1001.15
2022-10-17T06:36:51.170Z,1001.13
2022-10-17T06:37:51.160Z,1001.20
2022-10-17T06:38:51.148Z,1001.26
2022-10-17T06:39:51.119Z,1001.18
2022-10-17T06:40:51.129Z,1001.16
2022-10-17T06:41:51.100Z,1001.14
2022-10-17T06:42:51.113Z,1001.11
2022-10-17T06:43:51.080Z,1001.11
2022-10-17T06:44:51.071Z,1001.19
2022-10-17T06:45:51.088Z,1001.12
2022-10-17T06:46:51.051Z,1001.13
2022-10-17T06:47:51.073Z,1001.13
2022-10-17T06:48:51.036Z,1001.09
2022-10-17T06:49:51.014Z,1001.14
2022-10-17T06:50:51.012Z,1001.17
2022-10-17T06:51:50.995Z,1001.22
2022-10-17T06:52:51.007Z,1001.20
2022-10-17T06:53:50.974Z,1001.16
2022-10-17T06:54:51.017Z,1001.14
2022-10-17T06:55:50.954Z,1001.18
2022-10-17T06:56:50.989Z,1001.14
2022-10-17T06:57:50.948Z,1001.22
2022-10-17T06:58:50.928Z,1001.23
2022-10-17T06:59:50.906Z,1001.21
2022-10-17T07:00:50.997Z,1001.20
2022-10-17T07:01:50.887Z,1001.16
2022-10-17T07:02:50.897Z,1001.21
2022-10-17T07:03:50.870Z,1001.18
2022-10-17T07:04:50.872Z,1001.21
2022-10-17T07:05:50.856Z,1001.18
2022-10-17T07:06:50.918Z,1001.23
2022-10-17T07:07:51.822Z,1001.22
2022-10-17T07:08:50.821Z,1001.19
2022-10-17T07:09:50.811Z,1001.31
2022-10-17T07:10:50.808Z,1001.24
2022-10-17T07:11:50.792Z,1001.31
2022-10-17T07:12:50.801Z,1001.23
2022-10-17T07:13:50.762Z,1001.28
2022-10-17T07:14:50.760Z,1001.21
2022-10-17T07:15:50.781Z,1001.22
2022-10-17T07:16:50.744Z,1001.26
2022-10-17T07:17:50.755Z,1001.25
2022-10-17T07:18:50.732Z,1001.30
2022-10-17T07:19:50.707Z,1001.28
2022-10-17T07:20:50.695Z,1001.25
2022-10-17T07:21:50.675Z,1001.25
2022-10-17T07:22:50.694Z,1001.28
2022-10-17T07:23:50.671Z,1001.34
2022-10-17T07:25:50.637Z,1001.30
2022-10-17T07:26:50.654Z,1001.29
2022-10-17T07:27:50.647Z,1001.32
2022-10-17T07:28:50.668Z,1001.27
2022-10-17T07:29:50.598Z,1001.30
2022-10-17T07:30:53.597Z,1001.31
2022-10-17T07:31:50.568Z,1001.31
2022-10-17T07:32:50.581Z,1001.32
2022-10-17T07:33:50.596Z,1001.40
2022-10-17T07:34:50.541Z,1001.29
2022-10-17T07:35:50.539Z,1001.33
2022-10-17T07:36:50.528Z,1001.30
2022-10-17T07:37:50.531Z,1001.34
2022-10-17T07:38:50.532Z,1001.33
2022-10-17T07:39:50.482Z,1001.46
2022-10-17T07:40:50.484Z,1001.42
2022-10-17T07:41:50.463Z,1001.41
2022-10-17T07:42:50.492Z,1001.37
2022-10-17T07:43:50.452Z,1001.38
2022-10-17T07:44:50.440Z,1001.38
2022-10-17T07:45:50.423Z,1001.37
2022-10-17T07:46:50.441Z,1001.40
2022-10-17T07:47:50.414Z,1001.37
2022-10-17T07:48:50.398Z,1001.34
2022-10-17T07:49:50.375Z,1001.31
2022-10-17T07:50:50.372Z,1001.34
2022-10-17T07:51:50.358Z,1001.36
2022-10-17T07:52:50.388Z,1001.36
2022-10-17T07:53:50.340Z,1001.37
2022-10-17T07:54:50.329Z,1001.33
2022-10-17T07:55:50.307Z,1001.39
2022-10-17T07:56:50.384Z,1001.40
2022-10-17T07:57:50.309Z,1001.42
2022-10-17T07:58:50.327Z,1001.42
2022-10-17T07:59:50.273Z,1001.36
2022-10-17T08:00:50.381Z,1001.34
2022-10-17T08:01:50.252Z,1001.37
2022-10-17T08:02:50.259Z,1001.34
2022-10-17T08:03:50.221Z,1001.34
2022-10-17T08:04:50.221Z,1001.36
2022-10-17T08:05:50.213Z,1001.35
2022-10-17T08:06:53.420Z,1001.40
2022-10-17T08:07:51.212Z,1001.33
2022-10-17T08:08:50.182Z,1001.41
2022-10-17T08:09:50.163Z,1001.41
2022-10-17T08:10:50.153Z,1001.40
2022-10-17T08:11:50.141Z,1001.42
2022-10-17T08:12:50.135Z,1001.43
2022-10-17T08:13:50.134Z,1001.45
2022-10-17T08:14:50.115Z,1001.44
2022-10-17T08:15:50.097Z,1001.42
2022-10-17T08:16:50.093Z,1001.40
2022-10-17T08:17:50.075Z,1001.45
2022-10-17T08:18:50.086Z,1001.45
2022-10-17T08:19:50.068Z,1001.45
2022-10-17T08:20:50.055Z,1001.43
2022-10-17T08:21:50.060Z,1001.40
2022-10-17T08:22:50.036Z,1001.33
2022-10-17T08:23:50.028Z,1001.36
2022-10-17T08:24:50.006Z,1001.34
2022-10-17T08:25:49.989Z,1001.37
2022-10-17T08:26:51.870Z,1001.44
2022-10-17T08:27:49.970Z,1001.42
2022-10-17T08:28:50.053Z,1001.41
2022-10-17T08:29:49.942Z,1001.42
2022-10-17T08:30:49.942Z,1001.43
2022-10-17T08:31:52.402Z,1001.45
2022-10-17T08:32:51.048Z,1001.47
2022-10-17T08:33:49.929Z,1001.45
2022-10-17T08:34:49.904Z,1001.51
2022-10-17T08:35:49.882Z,1001.53
2022-10-17T08:36:49.880Z,1001.46
2022-10-17T08:37:49.873Z,1001.50
2022-10-17T08:38:52.809Z,1001.42
2022-10-17T08:39:49.843Z,1001.46
2022-10-17T08:40:49.834Z,1001.42
2022-10-17T08:41:49.825Z,1001.44
2022-10-17T08:42:49.817Z,1001.39
2022-10-17T08:43:49.816Z,1001.48
2022-10-17T08:44:49.797Z,1001.44
2022-10-17T08:45:49.777Z,1001.46
2022-10-17T08:46:49.795Z,1001.41
2022-10-17T08:47:49.774Z,1001.47
2022-10-17T08:48:49.771Z,1001.42
2022-10-17T08:49:49.749Z,1001.36
2022-10-17T08:50:49.749Z,1001.44
2022-10-17T08:51:49.712Z,1001.42
2022-10-17T08:52:49.709Z,1001.46
2022-10-17T08:53:49.734Z,1001.44
2022-10-17T08:54:49.688Z,1001.44
2022-10-17T08:55:49.677Z,1001.40
2022-10-17T08:56:49.847Z,1001.40
2022-10-17T08:57:49.654Z,1001.32
2022-10-17T08:58:49.669Z,1001.34
2022-10-17T08:59:49.631Z,1001.32
2022-10-17T09:00:49.638Z,1001.33
2022-10-17T09:01:49.603Z,1001.29
2022-10-17T09:02:49.690Z,1001.32
2022-10-17T09:03:49.607Z,1001.31
2022-10-17T09:04:49.585Z,1001.32
2022-10-17T09:05:49.564Z,1001.26
2022-10-17T09:06:49.563Z,1001.26
2022-10-17T09:07:49.545Z,1001.28
2022-10-17T09:08:49.556Z,1001.23
2022-10-17T09:09:49.529Z,1001.17
2022-10-17T09:10:49.523Z,1001.19
2022-10-17T09:11:49.503Z,1001.20
2022-10-17T09:12:49.510Z,1001.17
2022-10-17T09:13:49.497Z,1001.25
2022-10-17T09:14:49.488Z,1001.20
2022-10-17T09:15:49.465Z,1001.25
2022-10-17T09:16:49.458Z,1001.16
2022-10-17T09:17:49.447Z,1001.16
2022-10-17T09:18:49.449Z,1001.17
2022-10-17T09:19:49.418Z,1001.12
2022-10-17T09:20:49.413Z,1001.13
2022-10-17T09:21:49.392Z,1001.17
2022-10-17T09:22:49.410Z,1001.11
2022-10-17T09:23:49.411Z,1001.25
2022-10-17T09:24:49.371Z,1001.20
2022-10-17T09:25:49.351Z,1001.18
2022-10-17T09:26:49.355Z,1001.14
2022-10-17T09:27:49.332Z,1001.12
2022-10-17T09:28:49.378Z,1001.16
2022-10-17T09:29:49.314Z,1001.15
2022-10-17T09:30:49.304Z,1001.14
2022-10-17T09:31:49.315Z,1001.10
2022-10-17T09:32:49.298Z,1001.14
2022-10-17T09:33:54.322Z,1001.14
2022-10-17T09:34:50.266Z,1001.14
2022-10-17T09:35:49.245Z,1001.15
2022-10-17T09:36:49.244Z,1001.16
2022-10-17T09:37:49.235Z,1001.15
2022-10-17T09:38:49.237Z,1001.18
2022-10-17T09:39:49.212Z,1001.10
2022-10-17T09:40:50.937Z,1001.16
2022-10-17T09:41:49.188Z,1001.11
2022-10-17T09:42:49.189Z,1001.10
2022-10-17T09:43:49.199Z,1001.10
2022-10-17T09:44:49.159Z,1001.15
2022-10-17T09:45:49.141Z,1001.13
2022-10-17T09:46:49.131Z,1001.17
2022-10-17T09:48:52.598Z,1001.16
2022-10-17T09:49:49.114Z,1001.14
2022-10-17T09:50:57.884Z,1001.20
2022-10-17T09:51:50.084Z,1001.14
2022-10-17T09:52:49.081Z,1001.30
2022-10-17T09:53:49.074Z,1001.26
2022-10-17T09:54:49.056Z,1001.31
2022-10-17T09:55:49.035Z,1001.35
2022-10-17T09:56:49.035Z,1001.36
2022-10-17T09:57:49.016Z,1001.29
2022-10-17T09:58:49.035Z,1001.32
2022-10-17T09:59:48.997Z,1001.25
2022-10-17T10:00:49.192Z,1001.29
2022-10-17T10:01:48.977Z,1001.30
2022-10-17T10:02:48.968Z,1001.26
2022-10-17T10:03:48.968Z,1001.30
2022-10-17T10:05:03.652Z,1001.24
2022-10-17T10:05:49.931Z,1001.34
2022-10-17T10:06:48.929Z,1001.27
2022-10-17T10:07:48.918Z,1001.27
2022-10-17T10:08:48.928Z,1001.27
2022-10-17T10:09:48.906Z,1001.21
2022-10-17T10:10:48.887Z,1001.19
2022-10-17T10:11:48.880Z,1001.25
2022-10-17T10:12:48.954Z,1001.19
2022-10-17T10:13:48.873Z,1001.20
2022-10-17T10:14:52.175Z,1001.12
2022-10-17T10:15:48.864Z,1001.26
2022-10-17T10:16:48.823Z,1001.21
2022-10-17T10:17:48.803Z,1001.22
2022-10-17T10:18:50.853Z,1001.23
2022-10-17T10:19:48.783Z,1001.40
2022-10-17T10:20:48.777Z,1001.28
2022-10-17T10:21:48.765Z,1001.23
2022-10-17T10:22:48.756Z,1001.22
2022-10-17T10:23:48.756Z,1001.19
2022-10-17T10:24:48.756Z,1001.22
2022-10-17T10:25:48.720Z,1001.19
2022-10-17T10:26:48.717Z,1001.26
2022-10-17T10:27:48.719Z,1001.25
2022-10-17T10:28:48.748Z,1001.24
2022-10-17T10:29:48.681Z,1001.24
2022-10-17T10:30:48.687Z,1001.26
2022-10-17T10:31:48.658Z,1001.34
2022-10-17T10:32:48.655Z,1001.26
2022-10-17T10:33:50.936Z,1001.33
2022-10-17T10:34:48.635Z,1001.32
2022-10-17T10:35:48.611Z,1001.32
2022-10-17T10:36:48.627Z,1001.30
2022-10-17T10:37:48.596Z,1001.23
2022-10-17T10:38:48.611Z,1001.23
2022-10-17T10:39:48.575Z,1001.21
2022-10-17T10:40:48.563Z,1001.18
2022-10-17T10:41:48.556Z,1001.25
2022-10-17T10:42:48.552Z,1001.19
2022-10-17T10:43:48.555Z,1001.20
2022-10-17T10:44:48.524Z,1001.20
2022-10-17T10:45:49.224Z,1001.26
2022-10-17T10:46:48.497Z,1001.23
2022-10-17T10:47:48.497Z,1001.28
2022-10-17T10:48:48.507Z,1001.19
2022-10-17T10:49:48.477Z,1001.29
2022-10-17T10:50:48.459Z,1001.30
2022-10-17T10:51:48.459Z,1001.11
2022-10-17T10:52:48.443Z,1001.25
2022-10-17T10:53:48.449Z,1001.10
2022-10-17T10:54:48.424Z,1001.17
2022-10-17T10:55:48.412Z,1001.22
2022-10-17T10:56:51.140Z,1001.11
2022-10-17T10:57:49.390Z,1001.20
2022-10-17T10:58:48.393Z,1001.09
2022-10-17T10:59:48.375Z,1001.09
2022-10-17T11:00:48.387Z,1001.19
2022-10-17T11:01:48.355Z,1001.14
2022-10-17T11:02:48.343Z,1001.28
2022-10-17T11:03:48.350Z,1001.24
2022-10-17T11:04:48.316Z,1001.13
2022-10-17T11:05:48.305Z,1001.16
2022-10-17T11:06:48.295Z,1001.12
2022-10-17T11:07:48.287Z,1001.29
2022-10-17T11:08:48.287Z,1001.38
2022-10-17T11:09:48.266Z,1001.31
2022-10-17T11:10:48.247Z,1001.35
2022-10-17T11:11:48.247Z,1001.44
2022-10-17T11:12:48.232Z,1001.41
2022-10-17T11:13:49.638Z,1001.36
2022-10-17T11:14:48.211Z,1001.36
2022-10-17T11:15:48.202Z,1001.48
2022-10-17T11:16:48.190Z,1001.49
2022-10-17T11:17:48.188Z,1001.57
2022-10-17T11:18:48.182Z,1001.46
2022-10-17T11:19:48.161Z,1001.64
2022-10-17T11:20:48.143Z,1001.51
2022-10-17T11:21:48.155Z,1001.56
2022-10-17T11:22:48.143Z,1001.54
2022-10-17T11:23:48.145Z,1001.53
2022-10-17T11:24:48.115Z,1001.50
2022-10-17T11:25:48.104Z,1001.55
2022-10-17T11:26:48.086Z,1001.55
2022-10-17T11:27:48.083Z,1001.45
2022-10-17T11:28:48.120Z,1001.46
2022-10-17T11:29:48.064Z,1001.43
2022-10-17T11:30:48.053Z,1001.45
2022-10-17T11:31:48.047Z,1001.39
2022-10-17T11:32:48.028Z,1001.41
2022-10-17T11:33:48.039Z,1001.30
2022-10-17T11:34:48.008Z,1001.39
2022-10-17T11:35:48.000Z,1001.26
2022-10-17T11:36:47.990Z,1001.39
2022-10-17T11:37:49.060Z,1001.31
2022-10-17T11:38:47.969Z,1001.42
2022-10-17T11:39:47.974Z,1001.42
2022-10-17T11:40:47.945Z,1001.45
2022-10-17T11:41:47.945Z,1001.55
2022-10-17T11:42:47.948Z,1001.51
2022-10-17T11:43:47.929Z,1001.38
2022-10-17T11:44:47.911Z,1001.39
2022-10-17T11:45:47.903Z,1001.47
2022-10-17T11:46:47.885Z,1001.53
2022-10-17T11:47:47.903Z,1001.40
2022-10-17T11:48:47.866Z,1001.40
2022-10-17T11:49:50.820Z,1001.50
2022-10-17T11:52:04.120Z,1001.35
2022-10-17T11:52:56.373Z,1001.47
2022-10-17T11:53:48.816Z,1001.40
2022-10-17T11:54:47.809Z,1001.47
2022-10-17T11:55:48.000Z,1001.45
2022-10-17T11:56:47.791Z,1001.48
2022-10-17T11:57:47.775Z,1001.50
2022-10-17T11:58:47.789Z,1001.46
2022-10-17T11:59:47.780Z,1001.54
2022-10-17T12:00:49.055Z,1001.57
2022-10-17T12:01:47.732Z,1001.65
2022-10-17T12:02:47.714Z,1001.51
2022-10-17T12:03:47.731Z,1001.53
2022-10-17T12:04:49.619Z,1001.55
2022-10-17T12:05:47.696Z,1001.50
2022-10-17T12:06:47.674Z,1001.57
2022-10-17T12:07:47.692Z,1001.71
2022-10-17T12:08:47.684Z,1001.66
2022-10-17T12:09:47.656Z,1001.66
2022-10-17T12:10:47.646Z,1001.64
2022-10-17T12:11:47.636Z,1001.63
2022-10-17T12:12:47.615Z,1001.65
2022-10-17T12:13:47.628Z,1001.63
2022-10-17T12:14:47.599Z,1001.66